sensor_id;sensor_type;location;lat;lon;timestamp;P1;durP1;ratioP1;P2;durP2;ratioP2
12196;SDS011;6161;43.014;25.840;2023-02-01T00:01:53;0.60;;;0.60;;
12196;SDS011;6161;43.014;25.840;2023-02-01T00:04:18;1.20;;;1.10;;
12196;SDS011;6161;43.014;25.840;2023-02-01T00:06:44;1.10;;;1.00;;
12196;SDS011;6161;43.014;25.840;2023-02-01T00:09:09;0.80;;;0.80;;
12196;SDS011;6161;43.014;25.840;2023-02-01T00:11:34;0.77;;;0.77;;
12196;SDS011;6161;43.014;25.840;2023-02-01T00:14:00;1.80;;;1.37;;
12196;SDS011;6161;43.014;25.840;2023-02-01T00:16:26;1.90;;;1.10;;
12196;SDS011;6161;43.014;25.840;2023-02-01T00:18:57;1.33;;;1.23;;
12196;SDS011;6161;43.014;25.840;2023-02-01T00:21:22;0.57;;;0.57;;
12196;SDS011;6161;43.014;25.840;2023-02-01T00:23:47;1.00;;;1.00;;
12196;SDS011;6161;43.014;25.840;2023-02-01T00:26:15;1.10;;;1.10;;
12196;SDS011;6161;43.014;25.840;2023-02-01T00:28:41;1.00;;;0.83;;
12196;SDS011;6161;43.014;25.840;2023-02-01T00:31:06;0.90;;;0.90;;
12196;SDS011;6161;43.014;25.840;2023-02-01T00:33:32;0.87;;;0.87;;
12196;SDS011;6161;43.014;25.840;2023-02-01T00:35:57;0.80;;;0.80;;
12196;SDS011;6161;43.014;25.840;2023-02-01T00:38:24;1.33;;;1.23;;
12196;SDS011;6161;43.014;25.840;2023-02-01T00:40:49;1.37;;;1.20;;
12196;SDS011;6161;43.014;25.840;2023-02-01T00:43:14;2.07;;;1.23;;
12196;SDS011;6161;43.014;25.840;2023-02-01T00:45:39;1.63;;;1.23;;
12196;SDS011;6161;43.014;25.840;2023-02-01T00:48:05;0.63;;;0.63;;
12196;SDS011;6161;43.014;25.840;2023-02-01T00:50:30;1.23;;;0.83;;
12196;SDS011;6161;43.014;25.840;2023-02-01T00:52:55;1.10;;;1.00;;
12196;SDS011;6161;43.014;25.840;2023-02-01T00:55:21;0.70;;;0.70;;
12196;SDS011;6161;43.014;25.840;2023-02-01T00:57:46;1.07;;;1.00;;
12196;SDS011;6161;43.014;25.840;2023-02-01T01:00:11;0.97;;;0.57;;
12196;SDS011;6161;43.014;25.840;2023-02-01T01:02:37;1.27;;;1.00;;
12196;SDS011;6161;43.014;25.840;2023-02-01T01:05:02;2.43;;;1.20;;
12196;SDS011;6161;43.014;25.840;2023-02-01T01:07:27;0.63;;;0.63;;
12196;SDS011;6161;43.014;25.840;2023-02-01T01:09:53;0.73;;;0.73;;
12196;SDS011;6161;43.014;25.840;2023-02-01T01:12:18;1.00;;;1.00;;
12196;SDS011;6161;43.014;25.840;2023-02-01T01:14:44;1.23;;;1.10;;
12196;SDS011;6161;43.014;25.840;2023-02-01T01:17:10;1.33;;;1.13;;
12196;SDS011;6161;43.014;25.840;2023-02-01T01:19:35;0.87;;;0.87;;
12196;SDS011;6161;43.014;25.840;2023-02-01T01:22:00;1.50;;;1.33;;
12196;SDS011;6161;43.014;25.840;2023-02-01T01:24:26;0.97;;;0.97;;
12196;SDS011;6161;43.014;25.840;2023-02-01T01:26:51;0.60;;;0.60;;
12196;SDS011;6161;43.014;25.840;2023-02-01T01:29:16;0.70;;;0.70;;
12196;SDS011;6161;43.014;25.840;2023-02-01T01:31:42;1.27;;;1.17;;
12196;SDS011;6161;43.014;25.840;2023-02-01T01:34:07;0.60;;;0.60;;
12196;SDS011;6161;43.014;25.840;2023-02-01T01:36:33;0.90;;;0.87;;
12196;SDS011;6161;43.014;25.840;2023-02-01T01:38:58;1.07;;;1.00;;
12196;SDS011;6161;43.014;25.840;2023-02-01T01:41:24;0.47;;;0.47;;
12196;SDS011;6161;43.014;25.840;2023-02-01T01:44:00;0.70;;;0.70;;
12196;SDS011;6161;43.014;25.840;2023-02-01T01:46:27;1.00;;;1.00;;
12196;SDS011;6161;43.014;25.840;2023-02-01T01:49:35;0.70;;;0.70;;
12196;SDS011;6161;43.014;25.840;2023-02-01T01:51:43;0.80;;;0.77;;
12196;SDS011;6161;43.014;25.840;2023-02-01T01:54:11;0.70;;;0.70;;
12196;SDS011;6161;43.014;25.840;2023-02-01T01:56:37;3.00;;;0.87;;
12196;SDS011;6161;43.014;25.840;2023-02-01T01:59:03;0.80;;;0.70;;
12196;SDS011;6161;43.014;25.840;2023-02-01T02:01:29;0.43;;;0.43;;
12196;SDS011;6161;43.014;25.840;2023-02-01T02:03:54;0.90;;;0.90;;
12196;SDS011;6161;43.014;25.840;2023-02-01T02:08:49;0.50;;;0.50;;
12196;SDS011;6161;43.014;25.840;2023-02-01T02:11:15;0.70;;;0.70;;
12196;SDS011;6161;43.014;25.840;2023-02-01T02:13:41;0.50;;;0.50;;
12196;SDS011;6161;43.014;25.840;2023-02-01T02:32:02;1.83;;;1.13;;
12196;SDS011;6161;43.014;25.840;2023-02-01T02:41:48;1.17;;;0.80;;
12196;SDS011;6161;43.014;25.840;2023-02-01T02:52:59;1.03;;;0.90;;
12196;SDS011;6161;43.014;25.840;2023-02-01T02:55:45;5.10;;;0.93;;
12196;SDS011;6161;43.014;25.840;2023-02-01T02:58:10;0.93;;;0.63;;
12196;SDS011;6161;43.014;25.840;2023-02-01T03:00:55;0.87;;;0.83;;
12196;SDS011;6161;43.014;25.840;2023-02-01T03:03:40;0.57;;;0.57;;
12196;SDS011;6161;43.014;25.840;2023-02-01T03:06:24;0.93;;;0.87;;
12196;SDS011;6161;43.014;25.840;2023-02-01T03:08:50;0.70;;;0.60;;
12196;SDS011;6161;43.014;25.840;2023-02-01T03:11:22;0.37;;;0.37;;
12196;SDS011;6161;43.014;25.840;2023-02-01T03:18:55;0.40;;;0.23;;
12196;SDS011;6161;43.014;25.840;2023-02-01T03:21:26;0.20;;;0.20;;
12196;SDS011;6161;43.014;25.840;2023-02-01T03:23:53;0.70;;;0.53;;
12196;SDS011;6161;43.014;25.840;2023-02-01T03:26:20;0.60;;;0.60;;
12196;SDS011;6161;43.014;25.840;2023-02-01T03:28:52;0.43;;;0.43;;
12196;SDS011;6161;43.014;25.840;2023-02-01T03:31:18;0.60;;;0.60;;
12196;SDS011;6161;43.014;25.840;2023-02-01T03:33:44;0.30;;;0.30;;
12196;SDS011;6161;43.014;25.840;2023-02-01T03:36:15;0.33;;;0.33;;
12196;SDS011;6161;43.014;25.840;2023-02-01T03:41:13;1.23;;;0.50;;
12196;SDS011;6161;43.014;25.840;2023-02-01T03:43:49;1.50;;;0.47;;
12196;SDS011;6161;43.014;25.840;2023-02-01T03:46:18;0.40;;;0.40;;
12196;SDS011;6161;43.014;25.840;2023-02-01T03:48:45;0.70;;;0.67;;
12196;SDS011;6161;43.014;25.840;2023-02-01T03:51:11;0.67;;;0.67;;
12196;SDS011;6161;43.014;25.840;2023-02-01T03:53:37;0.60;;;0.60;;
12196;SDS011;6161;43.014;25.840;2023-02-01T03:56:05;0.37;;;0.37;;
12196;SDS011;6161;43.014;25.840;2023-02-01T03:58:31;1.23;;;0.77;;
12196;SDS011;6161;43.014;25.840;2023-02-01T04:00:57;2.40;;;0.40;;
12196;SDS011;6161;43.014;25.840;2023-02-01T04:03:23;0.20;;;0.20;;
12196;SDS011;6161;43.014;25.840;2023-02-01T04:05:49;3.90;;;0.57;;
12196;SDS011;6161;43.014;25.840;2023-02-01T04:08:14;0.70;;;0.70;;
12196;SDS011;6161;43.014;25.840;2023-02-01T04:10:40;0.57;;;0.57;;
12196;SDS011;6161;43.014;25.840;2023-02-01T04:13:05;0.73;;;0.73;;
12196;SDS011;6161;43.014;25.840;2023-02-01T04:15:30;0.20;;;0.20;;
12196;SDS011;6161;43.014;25.840;2023-02-01T04:17:56;2.73;;;0.77;;
12196;SDS011;6161;43.014;25.840;2023-02-01T04:20:21;1.13;;;0.67;;
12196;SDS011;6161;43.014;25.840;2023-02-01T04:22:46;1.50;;;1.00;;
12196;SDS011;6161;43.014;25.840;2023-02-01T04:25:11;1.00;;;0.47;;
12196;SDS011;6161;43.014;25.840;2023-02-01T04:27:37;2.00;;;0.60;;
12196;SDS011;6161;43.014;25.840;2023-02-01T04:30:05;1.63;;;0.60;;
12196;SDS011;6161;43.014;25.840;2023-02-01T04:32:35;1.40;;;0.70;;
12196;SDS011;6161;43.014;25.840;2023-02-01T04:35:00;0.50;;;0.50;;
12196;SDS011;6161;43.014;25.840;2023-02-01T04:37:25;0.63;;;0.63;;
12196;SDS011;6161;43.014;25.840;2023-02-01T04:39:51;0.53;;;0.47;;
12196;SDS011;6161;43.014;25.840;2023-02-01T04:42:16;1.00;;;0.77;;
12196;SDS011;6161;43.014;25.840;2023-02-01T04:44:41;0.30;;;0.30;;
12196;SDS011;6161;43.014;25.840;2023-02-01T04:47:07;0.57;;;0.57;;
12196;SDS011;6161;43.014;25.840;2023-02-01T04:49:32;0.67;;;0.50;;
12196;SDS011;6161;43.014;25.840;2023-02-01T04:51:58;0.83;;;0.83;;
12196;SDS011;6161;43.014;25.840;2023-02-01T04:54:24;0.53;;;0.53;;
12196;SDS011;6161;43.014;25.840;2023-02-01T04:56:49;0.57;;;0.57;;
12196;SDS011;6161;43.014;25.840;2023-02-01T04:59:14;0.47;;;0.47;;
12196;SDS011;6161;43.014;25.840;2023-02-01T05:01:39;2.00;;;0.43;;
12196;SDS011;6161;43.014;25.840;2023-02-01T05:04:05;1.00;;;1.00;;
12196;SDS011;6161;43.014;25.840;2023-02-01T05:06:30;0.30;;;0.30;;
12196;SDS011;6161;43.014;25.840;2023-02-01T05:08:55;0.50;;;0.50;;
12196;SDS011;6161;43.014;25.840;2023-02-01T05:11:21;0.57;;;0.57;;
12196;SDS011;6161;43.014;25.840;2023-02-01T05:14:04;0.60;;;0.33;;
12196;SDS011;6161;43.014;25.840;2023-02-01T05:16:30;2.00;;;0.50;;
12196;SDS011;6161;43.014;25.840;2023-02-01T05:18:55;0.23;;;0.23;;
12196;SDS011;6161;43.014;25.840;2023-02-01T05:21:20;0.83;;;0.77;;
12196;SDS011;6161;43.014;25.840;2023-02-01T05:23:46;0.40;;;0.40;;
12196;SDS011;6161;43.014;25.840;2023-02-01T05:26:30;0.90;;;0.83;;
12196;SDS011;6161;43.014;25.840;2023-02-01T05:28:55;0.77;;;0.77;;
12196;SDS011;6161;43.014;25.840;2023-02-01T05:31:21;2.83;;;0.50;;
12196;SDS011;6161;43.014;25.840;2023-02-01T05:33:47;1.50;;;0.70;;
12196;SDS011;6161;43.014;25.840;2023-02-01T05:36:12;0.60;;;0.50;;
12196;SDS011;6161;43.014;25.840;2023-02-01T05:38:37;0.50;;;0.50;;
12196;SDS011;6161;43.014;25.840;2023-02-01T05:41:02;1.27;;;0.80;;
12196;SDS011;6161;43.014;25.840;2023-02-01T05:43:28;0.50;;;0.50;;
12196;SDS011;6161;43.014;25.840;2023-02-01T05:45:53;0.63;;;0.60;;
12196;SDS011;6161;43.014;25.840;2023-02-01T05:48:18;0.70;;;0.70;;
12196;SDS011;6161;43.014;25.840;2023-02-01T05:50:44;0.93;;;0.80;;
12196;SDS011;6161;43.014;25.840;2023-02-01T05:53:10;0.40;;;0.40;;
12196;SDS011;6161;43.014;25.840;2023-02-01T05:55:36;0.57;;;0.57;;
12196;SDS011;6161;43.014;25.840;2023-02-01T05:58:01;0.40;;;0.40;;
12196;SDS011;6161;43.014;25.840;2023-02-01T06:00:27;0.90;;;0.80;;
12196;SDS011;6161;43.014;25.840;2023-02-01T06:02:52;0.43;;;0.43;;
12196;SDS011;6161;43.014;25.840;2023-02-01T06:05:17;0.47;;;0.47;;
12196;SDS011;6161;43.014;25.840;2023-02-01T06:07:43;2.27;;;1.33;;
12196;SDS011;6161;43.014;25.840;2023-02-01T06:10:09;1.70;;;1.57;;
12196;SDS011;6161;43.014;25.840;2023-02-01T06:12:34;1.73;;;1.40;;
12196;SDS011;6161;43.014;25.840;2023-02-01T06:15:00;1.43;;;1.33;;
12196;SDS011;6161;43.014;25.840;2023-02-01T06:17:25;0.90;;;0.90;;
12196;SDS011;6161;43.014;25.840;2023-02-01T06:19:50;1.80;;;1.10;;
12196;SDS011;6161;43.014;25.840;2023-02-01T06:22:16;0.93;;;0.80;;
12196;SDS011;6161;43.014;25.840;2023-02-01T06:24:41;0.90;;;0.83;;
12196;SDS011;6161;43.014;25.840;2023-02-01T06:27:07;0.37;;;0.37;;
12196;SDS011;6161;43.014;25.840;2023-02-01T06:29:32;0.33;;;0.33;;
12196;SDS011;6161;43.014;25.840;2023-02-01T06:31:58;1.30;;;0.87;;
12196;SDS011;6161;43.014;25.840;2023-02-01T06:34:23;0.87;;;0.87;;
12196;SDS011;6161;43.014;25.840;2023-02-01T06:36:48;0.60;;;0.60;;
12196;SDS011;6161;43.014;25.840;2023-02-01T06:39:14;0.83;;;0.67;;
12196;SDS011;6161;43.014;25.840;2023-02-01T06:41:41;1.23;;;0.80;;
12196;SDS011;6161;43.014;25.840;2023-02-01T06:44:07;1.40;;;1.03;;
12196;SDS011;6161;43.014;25.840;2023-02-01T06:46:33;0.63;;;0.63;;
12196;SDS011;6161;43.014;25.840;2023-02-01T06:48:58;2.17;;;0.77;;
12196;SDS011;6161;43.014;25.840;2023-02-01T06:51:25;1.73;;;0.80;;
12196;SDS011;6161;43.014;25.840;2023-02-01T06:53:50;0.37;;;0.37;;
12196;SDS011;6161;43.014;25.840;2023-02-01T06:56:15;1.00;;;1.00;;
12196;SDS011;6161;43.014;25.840;2023-02-01T06:58:41;0.63;;;0.63;;
12196;SDS011;6161;43.014;25.840;2023-02-01T07:01:07;0.60;;;0.60;;
12196;SDS011;6161;43.014;25.840;2023-02-01T07:03:33;0.50;;;0.47;;
12196;SDS011;6161;43.014;25.840;2023-02-01T07:05:58;0.40;;;0.40;;
12196;SDS011;6161;43.014;25.840;2023-02-01T07:08:24;0.67;;;0.57;;
12196;SDS011;6161;43.014;25.840;2023-02-01T07:10:49;0.50;;;0.50;;
12196;SDS011;6161;43.014;25.840;2023-02-01T07:13:14;2.13;;;1.07;;
12196;SDS011;6161;43.014;25.840;2023-02-01T07:15:40;0.40;;;0.40;;
12196;SDS011;6161;43.014;25.840;2023-02-01T07:18:05;0.50;;;0.50;;
12196;SDS011;6161;43.014;25.840;2023-02-01T07:20:30;1.13;;;0.67;;
12196;SDS011;6161;43.014;25.840;2023-02-01T07:22:56;0.33;;;0.33;;
12196;SDS011;6161;43.014;25.840;2023-02-01T07:25:22;2.63;;;0.90;;
12196;SDS011;6161;43.014;25.840;2023-02-01T07:27:47;1.57;;;0.87;;
12196;SDS011;6161;43.014;25.840;2023-02-01T07:30:12;0.40;;;0.40;;
12196;SDS011;6161;43.014;25.840;2023-02-01T07:32:38;0.87;;;0.87;;
12196;SDS011;6161;43.014;25.840;2023-02-01T07:35:03;0.50;;;0.50;;
12196;SDS011;6161;43.014;25.840;2023-02-01T07:37:28;0.37;;;0.37;;
12196;SDS011;6161;43.014;25.840;2023-02-01T07:39:54;0.70;;;0.70;;
12196;SDS011;6161;43.014;25.840;2023-02-01T07:42:20;0.50;;;0.50;;
12196;SDS011;6161;43.014;25.840;2023-02-01T07:44:45;0.40;;;0.30;;
12196;SDS011;6161;43.014;25.840;2023-02-01T07:47:10;0.50;;;0.50;;
12196;SDS011;6161;43.014;25.840;2023-02-01T07:49:36;0.47;;;0.47;;
12196;SDS011;6161;43.014;25.840;2023-02-01T07:52:01;0.67;;;0.67;;
12196;SDS011;6161;43.014;25.840;2023-02-01T07:54:26;0.20;;;0.20;;
12196;SDS011;6161;43.014;25.840;2023-02-01T07:56:52;1.20;;;0.50;;
12196;SDS011;6161;43.014;25.840;2023-02-01T07:59:17;0.70;;;0.70;;
12196;SDS011;6161;43.014;25.840;2023-02-01T08:01:42;0.47;;;0.47;;
12196;SDS011;6161;43.014;25.840;2023-02-01T08:04:09;1.30;;;1.00;;
12196;SDS011;6161;43.014;25.840;2023-02-01T08:06:35;1.73;;;1.47;;
12196;SDS011;6161;43.014;25.840;2023-02-01T08:09:01;1.53;;;0.83;;
12196;SDS011;6161;43.014;25.840;2023-02-01T08:11:26;1.43;;;0.90;;
12196;SDS011;6161;43.014;25.840;2023-02-01T08:13:52;0.77;;;0.77;;
12196;SDS011;6161;43.014;25.840;2023-02-01T08:16:18;0.60;;;0.60;;
12196;SDS011;6161;43.014;25.840;2023-02-01T08:18:44;0.63;;;0.63;;
12196;SDS011;6161;43.014;25.840;2023-02-01T08:21:11;1.00;;;1.00;;
12196;SDS011;6161;43.014;25.840;2023-02-01T08:23:39;1.13;;;0.97;;
12196;SDS011;6161;43.014;25.840;2023-02-01T08:28:32;2.17;;;1.73;;
12196;SDS011;6161;43.014;25.840;2023-02-01T08:30:58;1.43;;;0.83;;
12196;SDS011;6161;43.014;25.840;2023-02-01T08:33:23;0.77;;;0.77;;
12196;SDS011;6161;43.014;25.840;2023-02-01T08:35:48;1.17;;;0.93;;
12196;SDS011;6161;43.014;25.840;2023-02-01T08:38:14;1.23;;;0.93;;
12196;SDS011;6161;43.014;25.840;2023-02-01T08:40:39;0.57;;;0.57;;
12196;SDS011;6161;43.014;25.840;2023-02-01T08:43:06;1.23;;;1.13;;
12196;SDS011;6161;43.014;25.840;2023-02-01T08:45:31;0.43;;;0.43;;
12196;SDS011;6161;43.014;25.840;2023-02-01T08:47:57;0.67;;;0.67;;
12196;SDS011;6161;43.014;25.840;2023-02-01T08:50:23;1.97;;;0.93;;
12196;SDS011;6161;43.014;25.840;2023-02-01T08:52:49;1.57;;;1.47;;
12196;SDS011;6161;43.014;25.840;2023-02-01T08:55:14;1.20;;;0.97;;
12196;SDS011;6161;43.014;25.840;2023-02-01T08:57:40;0.50;;;0.50;;
12196;SDS011;6161;43.014;25.840;2023-02-01T09:00:07;2.87;;;1.13;;
12196;SDS011;6161;43.014;25.840;2023-02-01T09:02:33;1.27;;;1.17;;
12196;SDS011;6161;43.014;25.840;2023-02-01T09:04:58;1.57;;;1.43;;
12196;SDS011;6161;43.014;25.840;2023-02-01T09:07:24;1.00;;;1.00;;
12196;SDS011;6161;43.014;25.840;2023-02-01T09:09:49;1.43;;;1.20;;
12196;SDS011;6161;43.014;25.840;2023-02-01T09:12:15;1.03;;;0.60;;
12196;SDS011;6161;43.014;25.840;2023-02-01T09:14:40;1.30;;;0.90;;
12196;SDS011;6161;43.014;25.840;2023-02-01T09:17:05;0.43;;;0.43;;
12196;SDS011;6161;43.014;25.840;2023-02-01T09:19:31;1.53;;;1.00;;
12196;SDS011;6161;43.014;25.840;2023-02-01T09:21:57;0.50;;;0.50;;
12196;SDS011;6161;43.014;25.840;2023-02-01T09:24:22;3.40;;;0.70;;
12196;SDS011;6161;43.014;25.840;2023-02-01T09:26:47;1.97;;;0.53;;
12196;SDS011;6161;43.014;25.840;2023-02-01T09:29:13;0.60;;;0.60;;
12196;SDS011;6161;43.014;25.840;2023-02-01T09:31:38;1.40;;;0.57;;
12196;SDS011;6161;43.014;25.840;2023-02-01T09:34:04;0.63;;;0.53;;
12196;SDS011;6161;43.014;25.840;2023-02-01T09:36:31;2.60;;;0.67;;
12196;SDS011;6161;43.014;25.840;2023-02-01T09:38:58;0.50;;;0.50;;
12196;SDS011;6161;43.014;25.840;2023-02-01T09:46:32;0.47;;;0.47;;
12196;SDS011;6161;43.014;25.840;2023-02-01T09:49:00;0.47;;;0.47;;
12196;SDS011;6161;43.014;25.840;2023-02-01T09:51:34;0.53;;;0.53;;
12196;SDS011;6161;43.014;25.840;2023-02-01T09:57:28;1.17;;;0.90;;
12196;SDS011;6161;43.014;25.840;2023-02-01T10:01:48;0.87;;;0.60;;
12196;SDS011;6161;43.014;25.840;2023-02-01T10:04:14;1.20;;;1.00;;
12196;SDS011;6161;43.014;25.840;2023-02-01T10:17:38;2.40;;;0.93;;
12196;SDS011;6161;43.014;25.840;2023-02-01T10:20:52;0.50;;;0.40;;
12196;SDS011;6161;43.014;25.840;2023-02-01T10:23:06;1.37;;;0.90;;
12196;SDS011;6161;43.014;25.840;2023-02-01T10:25:36;0.90;;;0.57;;
12196;SDS011;6161;43.014;25.840;2023-02-01T10:28:03;0.50;;;0.50;;
12196;SDS011;6161;43.014;25.840;2023-02-01T10:30:47;0.50;;;0.50;;
12196;SDS011;6161;43.014;25.840;2023-02-01T10:33:18;2.20;;;0.60;;
12196;SDS011;6161;43.014;25.840;2023-02-01T10:35:46;4.93;;;0.67;;
12196;SDS011;6161;43.014;25.840;2023-02-01T10:38:17;1.33;;;1.23;;
12196;SDS011;6161;43.014;25.840;2023-02-01T10:40:45;1.77;;;1.10;;
12196;SDS011;6161;43.014;25.840;2023-02-01T10:43:11;2.57;;;0.63;;
12196;SDS011;6161;43.014;25.840;2023-02-01T10:45:36;1.70;;;0.80;;
12196;SDS011;6161;43.014;25.840;2023-02-01T10:48:03;0.73;;;0.67;;
12196;SDS011;6161;43.014;25.840;2023-02-01T10:55:47;0.70;;;0.70;;
12196;SDS011;6161;43.014;25.840;2023-02-01T10:58:35;1.67;;;1.57;;
12196;SDS011;6161;43.014;25.840;2023-02-01T11:01:08;0.67;;;0.67;;
12196;SDS011;6161;43.014;25.840;2023-02-01T11:03:39;1.13;;;0.70;;
12196;SDS011;6161;43.014;25.840;2023-02-01T11:08:46;0.30;;;0.30;;
12196;SDS011;6161;43.014;25.840;2023-02-01T11:11:12;0.70;;;0.40;;
12196;SDS011;6161;43.014;25.840;2023-02-01T11:13:38;0.50;;;0.50;;
12196;SDS011;6161;43.014;25.840;2023-02-01T11:16:04;2.07;;;0.63;;
12196;SDS011;6161;43.014;25.840;2023-02-01T11:18:37;1.27;;;1.03;;
12196;SDS011;6161;43.014;25.840;2023-02-01T11:21:03;1.43;;;1.10;;
12196;SDS011;6161;43.014;25.840;2023-02-01T11:23:29;0.83;;;0.60;;
12196;SDS011;6161;43.014;25.840;2023-02-01T11:25:56;0.60;;;0.60;;
12196;SDS011;6161;43.014;25.840;2023-02-01T11:28:50;0.30;;;0.30;;
12196;SDS011;6161;43.014;25.840;2023-02-01T11:31:11;0.40;;;0.40;;
12196;SDS011;6161;43.014;25.840;2023-02-01T11:33:38;0.47;;;0.47;;
12196;SDS011;6161;43.014;25.840;2023-02-01T11:36:11;0.30;;;0.30;;
12196;SDS011;6161;43.014;25.840;2023-02-01T11:38:37;0.80;;;0.50;;
12196;SDS011;6161;43.014;25.840;2023-02-01T11:43:38;0.43;;;0.43;;
12196;SDS011;6161;43.014;25.840;2023-02-01T11:46:18;2.10;;;1.17;;
12196;SDS011;6161;43.014;25.840;2023-02-01T11:48:49;1.43;;;1.30;;
12196;SDS011;6161;43.014;25.840;2023-02-01T11:51:21;1.03;;;0.73;;
12196;SDS011;6161;43.014;25.840;2023-02-01T11:56:23;0.73;;;0.73;;
12196;SDS011;6161;43.014;25.840;2023-02-01T12:09:09;0.40;;;0.40;;
12196;SDS011;6161;43.014;25.840;2023-02-01T12:11:52;0.50;;;0.50;;
12196;SDS011;6161;43.014;25.840;2023-02-01T12:20:36;0.70;;;0.37;;
12196;SDS011;6161;43.014;25.840;2023-02-01T12:25:55;0.20;;;0.20;;
12196;SDS011;6161;43.014;25.840;2023-02-01T12:28:00;0.40;;;0.40;;
12196;SDS011;6161;43.014;25.840;2023-02-01T12:35:38;0.93;;;0.40;;
12196;SDS011;6161;43.014;25.840;2023-02-01T12:43:04;0.47;;;0.40;;
12196;SDS011;6161;43.014;25.840;2023-02-01T12:45:32;0.70;;;0.70;;
12196;SDS011;6161;43.014;25.840;2023-02-01T12:48:01;1.07;;;0.97;;
12196;SDS011;6161;43.014;25.840;2023-02-01T12:50:39;0.50;;;0.50;;
12196;SDS011;6161;43.014;25.840;2023-02-01T12:53:18;0.73;;;0.73;;
12196;SDS011;6161;43.014;25.840;2023-02-01T12:55:49;0.70;;;0.70;;
12196;SDS011;6161;43.014;25.840;2023-02-01T12:58:21;0.43;;;0.43;;
12196;SDS011;6161;43.014;25.840;2023-02-01T13:03:41;0.60;;;0.60;;
12196;SDS011;6161;43.014;25.840;2023-02-01T13:06:28;0.60;;;0.60;;
12196;SDS011;6161;43.014;25.840;2023-02-01T13:18:54;0.37;;;0.37;;
12196;SDS011;6161;43.014;25.840;2023-02-01T13:21:25;0.70;;;0.70;;
12196;SDS011;6161;43.014;25.840;2023-02-01T13:23:51;2.33;;;1.20;;
12196;SDS011;6161;43.014;25.840;2023-02-01T13:26:17;0.90;;;0.90;;
12196;SDS011;6161;43.014;25.840;2023-02-01T13:31:24;1.10;;;1.00;;
12196;SDS011;6161;43.014;25.840;2023-02-01T13:39:26;0.90;;;0.90;;
12196;SDS011;6161;43.014;25.840;2023-02-01T13:41:56;0.70;;;0.70;;
12196;SDS011;6161;43.014;25.840;2023-02-01T13:44:25;1.10;;;0.80;;
12196;SDS011;6161;43.014;25.840;2023-02-01T13:46:51;1.17;;;0.83;;
12196;SDS011;6161;43.014;25.840;2023-02-01T13:49:23;0.83;;;0.83;;
12196;SDS011;6161;43.014;25.840;2023-02-01T13:51:51;2.63;;;2.20;;
12196;SDS011;6161;43.014;25.840;2023-02-01T13:54:30;3.97;;;1.23;;
12196;SDS011;6161;43.014;25.840;2023-02-01T13:56:56;0.80;;;0.80;;
12196;SDS011;6161;43.014;25.840;2023-02-01T14:04:49;0.40;;;0.40;;
12196;SDS011;6161;43.014;25.840;2023-02-01T14:07:19;1.30;;;0.37;;
12196;SDS011;6161;43.014;25.840;2023-02-01T14:09:45;1.67;;;1.07;;
12196;SDS011;6161;43.014;25.840;2023-02-01T14:12:41;0.60;;;0.60;;
12196;SDS011;6161;43.014;25.840;2023-02-01T14:15:16;1.43;;;1.10;;
12196;SDS011;6161;43.014;25.840;2023-02-01T14:17:41;0.40;;;0.40;;
12196;SDS011;6161;43.014;25.840;2023-02-01T14:22:50;0.43;;;0.40;;
12196;SDS011;6161;43.014;25.840;2023-02-01T14:25:16;0.43;;;0.43;;
12196;SDS011;6161;43.014;25.840;2023-02-01T14:27:43;0.93;;;0.83;;
12196;SDS011;6161;43.014;25.840;2023-02-01T14:30:11;0.73;;;0.70;;
12196;SDS011;6161;43.014;25.840;2023-02-01T14:32:40;1.13;;;0.60;;
12196;SDS011;6161;43.014;25.840;2023-02-01T14:35:07;1.20;;;0.60;;
12196;SDS011;6161;43.014;25.840;2023-02-01T14:37:36;2.43;;;0.70;;
12196;SDS011;6161;43.014;25.840;2023-02-01T14:42:48;0.50;;;0.50;;
12196;SDS011;6161;43.014;25.840;2023-02-01T14:47:42;1.50;;;1.30;;
12196;SDS011;6161;43.014;25.840;2023-02-01T14:57:49;1.03;;;0.63;;
12196;SDS011;6161;43.014;25.840;2023-02-01T15:00:20;0.30;;;0.30;;
12196;SDS011;6161;43.014;25.840;2023-02-01T15:02:47;1.47;;;0.97;;
12196;SDS011;6161;43.014;25.840;2023-02-01T15:05:20;0.87;;;0.87;;
12196;SDS011;6161;43.014;25.840;2023-02-01T15:07:47;0.80;;;0.80;;
12196;SDS011;6161;43.014;25.840;2023-02-01T15:10:12;0.27;;;0.27;;
12196;SDS011;6161;43.014;25.840;2023-02-01T15:12:40;0.90;;;0.90;;
12196;SDS011;6161;43.014;25.840;2023-02-01T15:18:01;5.77;;;4.87;;
12196;SDS011;6161;43.014;25.840;2023-02-01T15:20:27;16.37;;;9.40;;
12196;SDS011;6161;43.014;25.840;2023-02-01T15:23:00;3.40;;;2.70;;
12196;SDS011;6161;43.014;25.840;2023-02-01T15:25:28;1.33;;;1.20;;
12196;SDS011;6161;43.014;25.840;2023-02-01T15:27:55;4.43;;;4.03;;
12196;SDS011;6161;43.014;25.840;2023-02-01T15:32:46;2.37;;;1.90;;
12196;SDS011;6161;43.014;25.840;2023-02-01T15:35:34;1.63;;;1.53;;
12196;SDS011;6161;43.014;25.840;2023-02-01T15:43:19;1.97;;;1.77;;
12196;SDS011;6161;43.014;25.840;2023-02-01T15:45:44;1.20;;;1.10;;
12196;SDS011;6161;43.014;25.840;2023-02-01T15:48:11;1.27;;;0.90;;
12196;SDS011;6161;43.014;25.840;2023-02-01T15:50:43;0.50;;;0.50;;
12196;SDS011;6161;43.014;25.840;2023-02-01T15:53:09;4.57;;;0.90;;
12196;SDS011;6161;43.014;25.840;2023-02-01T15:55:39;1.57;;;0.97;;
12196;SDS011;6161;43.014;25.840;2023-02-01T15:58:06;0.80;;;0.77;;
12196;SDS011;6161;43.014;25.840;2023-02-01T16:00:35;1.10;;;1.00;;
12196;SDS011;6161;43.014;25.840;2023-02-01T16:03:23;0.60;;;0.60;;
12196;SDS011;6161;43.014;25.840;2023-02-01T16:05:56;0.60;;;0.60;;
12196;SDS011;6161;43.014;25.840;2023-02-01T16:08:23;0.33;;;0.33;;
12196;SDS011;6161;43.014;25.840;2023-02-01T16:10:50;0.77;;;0.77;;
12196;SDS011;6161;43.014;25.840;2023-02-01T16:13:16;1.43;;;1.33;;
12196;SDS011;6161;43.014;25.840;2023-02-01T16:15:42;1.37;;;1.27;;
12196;SDS011;6161;43.014;25.840;2023-02-01T16:18:08;5.73;;;3.20;;
12196;SDS011;6161;43.014;25.840;2023-02-01T16:20:35;10.73;;;4.73;;
12196;SDS011;6161;43.014;25.840;2023-02-01T16:23:00;11.97;;;4.53;;
12196;SDS011;6161;43.014;25.840;2023-02-01T16:25:26;6.23;;;3.40;;
12196;SDS011;6161;43.014;25.840;2023-02-01T16:27:51;6.00;;;3.03;;
12196;SDS011;6161;43.014;25.840;2023-02-01T16:30:16;5.37;;;3.27;;
12196;SDS011;6161;43.014;25.840;2023-02-01T16:32:47;5.17;;;2.40;;
12196;SDS011;6161;43.014;25.840;2023-02-01T16:35:19;2.27;;;1.93;;
12196;SDS011;6161;43.014;25.840;2023-02-01T16:37:46;1.57;;;1.47;;
12196;SDS011;6161;43.014;25.840;2023-02-01T16:40:15;1.47;;;1.37;;
12196;SDS011;6161;43.014;25.840;2023-02-01T16:42:41;4.63;;;1.23;;
12196;SDS011;6161;43.014;25.840;2023-02-01T16:45:06;1.00;;;0.83;;
12196;SDS011;6161;43.014;25.840;2023-02-01T16:47:33;0.80;;;0.80;;
12196;SDS011;6161;43.014;25.840;2023-02-01T16:49:58;1.37;;;1.03;;
12196;SDS011;6161;43.014;25.840;2023-02-01T16:52:25;0.53;;;0.53;;
12196;SDS011;6161;43.014;25.840;2023-02-01T16:54:51;0.50;;;0.50;;
12196;SDS011;6161;43.014;25.840;2023-02-01T16:57:18;0.57;;;0.57;;
12196;SDS011;6161;43.014;25.840;2023-02-01T16:59:44;1.50;;;1.37;;
12196;SDS011;6161;43.014;25.840;2023-02-01T17:02:13;1.10;;;1.07;;
12196;SDS011;6161;43.014;25.840;2023-02-01T17:04:39;0.73;;;0.73;;
12196;SDS011;6161;43.014;25.840;2023-02-01T17:07:04;1.13;;;1.00;;
12196;SDS011;6161;43.014;25.840;2023-02-01T17:09:35;3.30;;;1.27;;
12196;SDS011;6161;43.014;25.840;2023-02-01T17:12:00;0.63;;;0.63;;
12196;SDS011;6161;43.014;25.840;2023-02-01T17:14:26;1.60;;;1.10;;
12196;SDS011;6161;43.014;25.840;2023-02-01T17:16:51;1.57;;;0.80;;
12196;SDS011;6161;43.014;25.840;2023-02-01T17:19:17;0.40;;;0.40;;
12196;SDS011;6161;43.014;25.840;2023-02-01T17:21:45;0.60;;;0.60;;
12196;SDS011;6161;43.014;25.840;2023-02-01T17:24:14;0.93;;;0.87;;
12196;SDS011;6161;43.014;25.840;2023-02-01T17:26:40;0.67;;;0.67;;
12196;SDS011;6161;43.014;25.840;2023-02-01T17:29:06;0.50;;;0.50;;
12196;SDS011;6161;43.014;25.840;2023-02-01T17:31:32;0.17;;;0.17;;